sensor_id;sensor_type;location;lat;lon;timestamp;temperature;humidity
71188;DHT22;58893;53.130;8.158;2022-12-13T00:01:20;0.20;63.70
71188;DHT22;58893;53.130;8.158;2022-12-13T00:03:46;0.20;64.10
71188;DHT22;58893;53.130;8.158;2022-12-13T00:06:12;0.20;64.20
71188;DHT22;58893;53.130;8.158;2022-12-13T00:08:38;0.20;64.40
71188;DHT22;58893;53.130;8.158;2022-12-13T00:11:06;0.20;64.70
71188;DHT22;58893;53.130;8.158;2022-12-13T00:13:33;0.20;64.80
71188;DHT22;58893;53.130;8.158;2022-12-13T00:16:01;0.20;64.80
71188;DHT22;58893;53.130;8.158;2022-12-13T00:18:27;0.20;65.00
71188;DHT22;58893;53.130;8.158;2022-12-13T00:20:53;0.20;65.20
71188;DHT22;58893;53.130;8.158;2022-12-13T00:23:19;0.20;65.20
71188;DHT22;58893;53.130;8.158;2022-12-13T00:25:44;0.20;65.20
71188;DHT22;58893;53.130;8.158;2022-12-13T00:28:10;0.20;65.10
71188;DHT22;58893;53.130;8.158;2022-12-13T00:30:36;0.20;65.10
71188;DHT22;58893;53.130;8.158;2022-12-13T00:33:01;0.20;64.90
71188;DHT22;58893;53.130;8.158;2022-12-13T00:35:27;0.20;64.70
71188;DHT22;58893;53.130;8.158;2022-12-13T00:37:52;0.20;64.50
71188;DHT22;58893;53.130;8.158;2022-12-13T00:40:18;0.20;64.50
71188;DHT22;58893;53.130;8.158;2022-12-13T00:42:44;0.20;64.50
71188;DHT22;58893;53.130;8.158;2022-12-13T00:45:09;0.20;64.40
71188;DHT22;58893;53.130;8.158;2022-12-13T00:47:35;0.20;64.20
71188;DHT22;58893;53.130;8.158;2022-12-13T00:50:03;0.20;63.90
71188;DHT22;58893;53.130;8.158;2022-12-13T00:52:28;0.20;63.90
71188;DHT22;58893;53.130;8.158;2022-12-13T00:54:54;0.20;63.90
71188;DHT22;58893;53.130;8.158;2022-12-13T00:57:20;0.20;64.00
71188;DHT22;58893;53.130;8.158;2022-12-13T00:59:45;0.20;64.10
71188;DHT22;58893;53.130;8.158;2022-12-13T01:02:11;0.20;63.80
71188;DHT22;58893;53.130;8.158;2022-12-13T01:04:37;0.20;63.50
71188;DHT22;58893;53.130;8.158;2022-12-13T01:07:02;0.20;63.40
71188;DHT22;58893;53.130;8.158;2022-12-13T01:09:29;0.20;62.40
71188;DHT22;58893;53.130;8.158;2022-12-13T01:11:58;0.20;62.40
71188;DHT22;58893;53.130;8.158;2022-12-13T01:14:24;0.10;62.50
71188;DHT22;58893;53.130;8.158;2022-12-13T01:16:50;0.10;63.00
71188;DHT22;58893;53.130;8.158;2022-12-13T01:19:15;0.10;63.80
71188;DHT22;58893;53.130;8.158;2022-12-13T01:21:41;0.10;64.70
71188;DHT22;58893;53.130;8.158;2022-12-13T01:24:09;0.10;65.70
71188;DHT22;58893;53.130;8.158;2022-12-13T01:26:35;0.10;66.60
71188;DHT22;58893;53.130;8.158;2022-12-13T01:29:00;0.10;67.40
71188;DHT22;58893;53.130;8.158;2022-12-13T01:31:27;0.20;68.30
71188;DHT22;58893;53.130;8.158;2022-12-13T01:33:53;0.20;69.00
71188;DHT22;58893;53.130;8.158;2022-12-13T01:36:20;0.20;69.70
71188;DHT22;58893;53.130;8.158;2022-12-13T01:38:46;0.20;70.10
71188;DHT22;58893;53.130;8.158;2022-12-13T01:41:16;0.20;70.40
71188;DHT22;58893;53.130;8.158;2022-12-13T01:46:12;0.20;71.50
71188;DHT22;58893;53.130;8.158;2022-12-13T01:48:43;0.20;71.70
71188;DHT22;58893;53.130;8.158;2022-12-13T01:51:14;0.20;72.00
71188;DHT22;58893;53.130;8.158;2022-12-13T01:53:42;0.30;72.40
71188;DHT22;58893;53.130;8.158;2022-12-13T01:56:13;0.30;72.40
71188;DHT22;58893;53.130;8.158;2022-12-13T01:58:43;0.30;72.30
71188;DHT22;58893;53.130;8.158;2022-12-13T02:01:09;0.30;72.30
71188;DHT22;58893;53.130;8.158;2022-12-13T02:03:35;0.40;72.30
71188;DHT22;58893;53.130;8.158;2022-12-13T02:06:05;0.40;72.30
71188;DHT22;58893;53.130;8.158;2022-12-13T02:08:34;0.40;72.20
71188;DHT22;58893;53.130;8.158;2022-12-13T02:11:02;0.40;72.10
71188;DHT22;58893;53.130;8.158;2022-12-13T02:13:28;0.40;72.00
71188;DHT22;58893;53.130;8.158;2022-12-13T02:24:44;0.50;71.50
71188;DHT22;58893;53.130;8.158;2022-12-13T02:27:29;0.50;71.30
71188;DHT22;58893;53.130;8.158;2022-12-13T02:30:22;0.40;71.30
71188;DHT22;58893;53.130;8.158;2022-12-13T02:33:02;0.40;73.30
71188;DHT22;58893;53.130;8.158;2022-12-13T02:35:41;0.40;73.50
71188;DHT22;58893;53.130;8.158;2022-12-13T02:38:34;0.40;72.90
71188;DHT22;58893;53.130;8.158;2022-12-13T02:41:26;0.40;72.70
71188;DHT22;58893;53.130;8.158;2022-12-13T02:46:21;0.40;71.60
71188;DHT22;58893;53.130;8.158;2022-12-13T02:48:52;0.50;72.10
71188;DHT22;58893;53.130;8.158;2022-12-13T02:51:20;0.40;73.10
71188;DHT22;58893;53.130;8.158;2022-12-13T02:53:46;0.50;73.00
71188;DHT22;58893;53.130;8.158;2022-12-13T02:56:12;0.50;71.10
71188;DHT22;58893;53.130;8.158;2022-12-13T02:58:45;0.50;71.20
71188;DHT22;58893;53.130;8.158;2022-12-13T03:17:22;0.70;71.30
71188;DHT22;58893;53.130;8.158;2022-12-13T03:19:52;0.70;71.50
71188;DHT22;58893;53.130;8.158;2022-12-13T03:22:17;0.70;71.90
71188;DHT22;58893;53.130;8.158;2022-12-13T03:24:44;0.70;72.10
71188;DHT22;58893;53.130;8.158;2022-12-13T03:27:10;0.70;72.60
71188;DHT22;58893;53.130;8.158;2022-12-13T03:29:36;0.70;73.60
71188;DHT22;58893;53.130;8.158;2022-12-13T03:32:02;0.80;73.40
71188;DHT22;58893;53.130;8.158;2022-12-13T03:34:28;0.80;75.20
71188;DHT22;58893;53.130;8.158;2022-12-13T03:36:54;0.80;73.00
71188;DHT22;58893;53.130;8.158;2022-12-13T03:39:20;0.90;73.30
71188;DHT22;58893;53.130;8.158;2022-12-13T03:41:46;0.90;73.40
71188;DHT22;58893;53.130;8.158;2022-12-13T03:44:13;0.90;73.40
71188;DHT22;58893;53.130;8.158;2022-12-13T03:46:38;1.00;73.50
71188;DHT22;58893;53.130;8.158;2022-12-13T03:49:04;0.90;73.50
71188;DHT22;58893;53.130;8.158;2022-12-13T03:51:29;1.00;73.60
71188;DHT22;58893;53.130;8.158;2022-12-13T03:53:55;1.00;73.70
71188;DHT22;58893;53.130;8.158;2022-12-13T03:56:21;1.00;73.60
71188;DHT22;58893;53.130;8.158;2022-12-13T03:58:46;1.00;73.60
71188;DHT22;58893;53.130;8.158;2022-12-13T04:01:14;1.00;73.60
71188;DHT22;58893;53.130;8.158;2022-12-13T04:03:41;1.00;73.60
71188;DHT22;58893;53.130;8.158;2022-12-13T04:06:08;1.00;73.60
71188;DHT22;58893;53.130;8.158;2022-12-13T04:08:35;1.00;73.60
71188;DHT22;58893;53.130;8.158;2022-12-13T04:11:02;1.10;73.60
71188;DHT22;58893;53.130;8.158;2022-12-13T04:13:46;1.00;73.50
71188;DHT22;58893;53.130;8.158;2022-12-13T04:16:11;1.10;73.60
71188;DHT22;58893;53.130;8.158;2022-12-13T04:18:37;1.10;73.60
71188;DHT22;58893;53.130;8.158;2022-12-13T04:21:03;1.00;73.40
71188;DHT22;58893;53.130;8.158;2022-12-13T04:23:28;1.00;73.40
71188;DHT22;58893;53.130;8.158;2022-12-13T04:25:54;1.00;73.30
71188;DHT22;58893;53.130;8.158;2022-12-13T04:28:19;1.00;73.20
71188;DHT22;58893;53.130;8.158;2022-12-13T04:30:45;1.00;73.00
71188;DHT22;58893;53.130;8.158;2022-12-13T04:33:11;1.00;72.80
71188;DHT22;58893;53.130;8.158;2022-12-13T04:35:36;1.00;72.70
71188;DHT22;58893;53.130;8.158;2022-12-13T04:38:02;1.00;72.90
71188;DHT22;58893;53.130;8.158;2022-12-13T04:40:27;1.00;72.90
71188;DHT22;58893;53.130;8.158;2022-12-13T04:42:53;1.00;72.90
71188;DHT22;58893;53.130;8.158;2022-12-13T04:45:20;0.90;72.80
71188;DHT22;58893;53.130;8.158;2022-12-13T04:47:45;0.90;72.90
71188;DHT22;58893;53.130;8.158;2022-12-13T04:50:11;0.90;72.90
71188;DHT22;58893;53.130;8.158;2022-12-13T04:52:37;0.90;72.90
71188;DHT22;58893;53.130;8.158;2022-12-13T04:55:04;0.90;72.90
71188;DHT22;58893;53.130;8.158;2022-12-13T04:57:30;0.90;72.80
71188;DHT22;58893;53.130;8.158;2022-12-13T04:59:56;0.90;72.90
71188;DHT22;58893;53.130;8.158;2022-12-13T05:02:22;0.90;72.80
71188;DHT22;58893;53.130;8.158;2022-12-13T05:04:47;0.90;72.80
71188;DHT22;58893;53.130;8.158;2022-12-13T05:07:13;0.90;72.80
71188;DHT22;58893;53.130;8.158;2022-12-13T05:09:39;0.90;72.80
71188;DHT22;58893;53.130;8.158;2022-12-13T05:12:05;0.90;72.90
71188;DHT22;58893;53.130;8.158;2022-12-13T05:14:30;0.90;73.30
71188;DHT22;58893;53.130;8.158;2022-12-13T05:16:57;0.90;72.90
71188;DHT22;58893;53.130;8.158;2022-12-13T05:19:22;0.90;73.00
71188;DHT22;58893;53.130;8.158;2022-12-13T05:21:48;0.90;73.10
71188;DHT22;58893;53.130;8.158;2022-12-13T05:24:14;0.80;72.90
71188;DHT22;58893;53.130;8.158;2022-12-13T05:26:39;0.90;72.50
71188;DHT22;58893;53.130;8.158;2022-12-13T05:29:05;0.90;72.20
71188;DHT22;58893;53.130;8.158;2022-12-13T05:31:31;0.80;72.00
71188;DHT22;58893;53.130;8.158;2022-12-13T05:33:56;0.90;72.10
71188;DHT22;58893;53.130;8.158;2022-12-13T05:36:22;0.90;72.10
71188;DHT22;58893;53.130;8.158;2022-12-13T05:38:50;0.90;72.10
71188;DHT22;58893;53.130;8.158;2022-12-13T05:41:18;0.90;72.00
71188;DHT22;58893;53.130;8.158;2022-12-13T05:43:44;0.80;71.90
71188;DHT22;58893;53.130;8.158;2022-12-13T05:46:11;0.80;71.90
71188;DHT22;58893;53.130;8.158;2022-12-13T05:48:37;0.80;72.00
71188;DHT22;58893;53.130;8.158;2022-12-13T05:51:03;0.80;72.00
71188;DHT22;58893;53.130;8.158;2022-12-13T05:53:29;0.80;72.00
71188;DHT22;58893;53.130;8.158;2022-12-13T05:55:58;0.80;72.00
71188;DHT22;58893;53.130;8.158;2022-12-13T05:58:24;0.80;71.80
71188;DHT22;58893;53.130;8.158;2022-12-13T06:00:50;0.80;71.80
71188;DHT22;58893;53.130;8.158;2022-12-13T06:03:15;0.80;71.90
71188;DHT22;58893;53.130;8.158;2022-12-13T06:05:41;0.80;71.90
71188;DHT22;58893;53.130;8.158;2022-12-13T06:08:08;0.80;71.80
71188;DHT22;58893;53.130;8.158;2022-12-13T06:10:34;0.80;71.70
71188;DHT22;58893;53.130;8.158;2022-12-13T06:12:59;0.80;71.50
71188;DHT22;58893;53.130;8.158;2022-12-13T06:15:25;0.80;71.50
71188;DHT22;58893;53.130;8.158;2022-12-13T06:17:51;0.80;71.40
71188;DHT22;58893;53.130;8.158;2022-12-13T06:20:16;0.80;71.40
71188;DHT22;58893;53.130;8.158;2022-12-13T06:22:42;0.80;71.40
71188;DHT22;58893;53.130;8.158;2022-12-13T06:25:08;0.80;71.80
71188;DHT22;58893;53.130;8.158;2022-12-13T06:27:35;0.70;71.30
71188;DHT22;58893;53.130;8.158;2022-12-13T06:30:00;0.80;71.30
71188;DHT22;58893;53.130;8.158;2022-12-13T06:32:26;0.80;71.90
71188;DHT22;58893;53.130;8.158;2022-12-13T06:34:51;0.80;71.30
71188;DHT22;58893;53.130;8.158;2022-12-13T06:37:17;0.80;71.30
71188;DHT22;58893;53.130;8.158;2022-12-13T06:39:43;0.80;71.30
71188;DHT22;58893;53.130;8.158;2022-12-13T06:42:16;0.70;71.30
71188;DHT22;58893;53.130;8.158;2022-12-13T06:44:42;0.70;71.30
71188;DHT22;58893;53.130;8.158;2022-12-13T06:47:08;0.70;71.30
71188;DHT22;58893;53.130;8.158;2022-12-13T06:49:33;0.70;71.20
71188;DHT22;58893;53.130;8.158;2022-12-13T06:51:59;0.70;71.20
71188;DHT22;58893;53.130;8.158;2022-12-13T06:54:25;0.70;71.20
71188;DHT22;58893;53.130;8.158;2022-12-13T06:56:50;0.70;71.20
71188;DHT22;58893;53.130;8.158;2022-12-13T06:59:16;0.70;71.40
71188;DHT22;58893;53.130;8.158;2022-12-13T07:01:41;0.70;71.40
71188;DHT22;58893;53.130;8.158;2022-12-13T07:04:10;0.60;71.40
71188;DHT22;58893;53.130;8.158;2022-12-13T07:06:36;0.60;71.20
71188;DHT22;58893;53.130;8.158;2022-12-13T07:09:02;0.70;71.30
71188;DHT22;58893;53.130;8.158;2022-12-13T07:11:30;0.60;71.20
71188;DHT22;58893;53.130;8.158;2022-12-13T07:13:55;0.60;71.10
71188;DHT22;58893;53.130;8.158;2022-12-13T07:16:22;0.60;70.90
71188;DHT22;58893;53.130;8.158;2022-12-13T07:18:56;0.60;70.80
71188;DHT22;58893;53.130;8.158;2022-12-13T07:21:22;0.60;70.70
71188;DHT22;58893;53.130;8.158;2022-12-13T07:23:48;0.60;70.70
71188;DHT22;58893;53.130;8.158;2022-12-13T07:26:17;0.60;70.60
71188;DHT22;58893;53.130;8.158;2022-12-13T07:28:44;0.60;70.60
71188;DHT22;58893;53.130;8.158;2022-12-13T07:31:10;0.60;70.60
71188;DHT22;58893;53.130;8.158;2022-12-13T07:33:36;0.60;70.40
71188;DHT22;58893;53.130;8.158;2022-12-13T07:36:22;0.60;70.40
71188;DHT22;58893;53.130;8.158;2022-12-13T07:38:55;0.60;70.30
71188;DHT22;58893;53.130;8.158;2022-12-13T07:41:25;0.60;70.30
71188;DHT22;58893;53.130;8.158;2022-12-13T07:43:52;0.60;70.10
71188;DHT22;58893;53.130;8.158;2022-12-13T07:46:17;0.60;70.00
71188;DHT22;58893;53.130;8.158;2022-12-13T07:48:43;0.60;70.00
71188;DHT22;58893;53.130;8.158;2022-12-13T07:51:10;0.60;69.90
71188;DHT22;58893;53.130;8.158;2022-12-13T07:53:40;0.60;69.90
71188;DHT22;58893;53.130;8.158;2022-12-13T07:56:09;0.60;69.90
71188;DHT22;58893;53.130;8.158;2022-12-13T07:58:36;0.60;69.80
71188;DHT22;58893;53.130;8.158;2022-12-13T08:01:07;0.60;69.80
71188;DHT22;58893;53.130;8.158;2022-12-13T08:03:34;0.60;69.80
71188;DHT22;58893;53.130;8.158;2022-12-13T08:06:05;0.60;69.80
71188;DHT22;58893;53.130;8.158;2022-12-13T08:08:32;0.60;69.70
71188;DHT22;58893;53.130;8.158;2022-12-13T08:11:10;0.60;69.60
71188;DHT22;58893;53.130;8.158;2022-12-13T08:13:36;0.60;69.60
71188;DHT22;58893;53.130;8.158;2022-12-13T08:16:05;0.60;69.50
71188;DHT22;58893;53.130;8.158;2022-12-13T08:18:31;0.60;69.50
71188;DHT22;58893;53.130;8.158;2022-12-13T08:20:59;0.60;69.40
71188;DHT22;58893;53.130;8.158;2022-12-13T08:23:25;0.60;69.40
71188;DHT22;58893;53.130;8.158;2022-12-13T08:25:54;0.60;69.40
71188;DHT22;58893;53.130;8.158;2022-12-13T08:28:21;0.60;69.40
71188;DHT22;58893;53.130;8.158;2022-12-13T08:30:47;0.60;69.40
71188;DHT22;58893;53.130;8.158;2022-12-13T08:33:13;0.60;69.50
71188;DHT22;58893;53.130;8.158;2022-12-13T08:35:39;0.60;69.40
71188;DHT22;58893;53.130;8.158;2022-12-13T08:38:05;0.60;69.50
71188;DHT22;58893;53.130;8.158;2022-12-13T08:40:31;0.60;69.10
71188;DHT22;58893;53.130;8.158;2022-12-13T08:42:57;0.70;69.20
71188;DHT22;58893;53.130;8.158;2022-12-13T08:45:23;0.70;69.20
71188;DHT22;58893;53.130;8.158;2022-12-13T08:47:49;0.70;69.20
71188;DHT22;58893;53.130;8.158;2022-12-13T08:50:15;0.60;69.10
71188;DHT22;58893;53.130;8.158;2022-12-13T08:52:40;0.70;69.20
71188;DHT22;58893;53.130;8.158;2022-12-13T08:55:09;0.60;69.30
71188;DHT22;58893;53.130;8.158;2022-12-13T08:57:36;0.70;69.10
71188;DHT22;58893;53.130;8.158;2022-12-13T09:00:04;0.60;69.60
71188;DHT22;58893;53.130;8.158;2022-12-13T09:02:29;0.60;69.10
71188;DHT22;58893;53.130;8.158;2022-12-13T09:04:55;0.70;69.30
71188;DHT22;58893;53.130;8.158;2022-12-13T09:07:20;0.60;69.70
71188;DHT22;58893;53.130;8.158;2022-12-13T09:09:46;0.60;69.60
71188;DHT22;58893;53.130;8.158;2022-12-13T09:12:12;0.60;69.70
71188;DHT22;58893;53.130;8.158;2022-12-13T09:14:37;0.70;69.90
71188;DHT22;58893;53.130;8.158;2022-12-13T09:17:03;0.70;69.90
71188;DHT22;58893;53.130;8.158;2022-12-13T09:19:29;0.70;69.90
71188;DHT22;58893;53.130;8.158;2022-12-13T09:21:55;0.70;70.00
71188;DHT22;58893;53.130;8.158;2022-12-13T09:24:21;0.70;70.40
71188;DHT22;58893;53.130;8.158;2022-12-13T09:26:46;0.70;70.70
71188;DHT22;58893;53.130;8.158;2022-12-13T09:29:12;0.70;70.30
71188;DHT22;58893;53.130;8.158;2022-12-13T09:31:41;0.80;69.40
71188;DHT22;58893;53.130;8.158;2022-12-13T09:34:08;0.80;69.50
71188;DHT22;58893;53.130;8.158;2022-12-13T09:36:33;0.80;71.20
71188;DHT22;58893;53.130;8.158;2022-12-13T09:38:59;0.80;69.50
71188;DHT22;58893;53.130;8.158;2022-12-13T09:41:32;0.80;69.50
71188;DHT22;58893;53.130;8.158;2022-12-13T09:44:06;0.80;69.60
71188;DHT22;58893;53.130;8.158;2022-12-13T09:46:37;0.80;69.50
71188;DHT22;58893;53.130;8.158;2022-12-13T09:49:09;0.80;69.40
71188;DHT22;58893;53.130;8.158;2022-12-13T09:51:37;0.70;69.50
71188;DHT22;58893;53.130;8.158;2022-12-13T09:54:03;0.80;69.70
71188;DHT22;58893;53.130;8.158;2022-12-13T09:56:29;0.70;71.40
71188;DHT22;58893;53.130;8.158;2022-12-13T09:58:55;0.80;71.80
71188;DHT22;58893;53.130;8.158;2022-12-13T10:01:21;0.80;72.40
71188;DHT22;58893;53.130;8.158;2022-12-13T10:03:53;0.90;69.80
71188;DHT22;58893;53.130;8.158;2022-12-13T10:06:24;0.90;69.80
71188;DHT22;58893;53.130;8.158;2022-12-13T10:08:55;0.90;69.80
71188;DHT22;58893;53.130;8.158;2022-12-13T10:11:21;0.90;69.80
71188;DHT22;58893;53.130;8.158;2022-12-13T10:13:53;0.90;69.90
71188;DHT22;58893;53.130;8.158;2022-12-13T10:16:49;0.90;69.80
71188;DHT22;58893;53.130;8.158;2022-12-13T10:19:22;0.90;69.70
71188;DHT22;58893;53.130;8.158;2022-12-13T10:21:49;1.00;69.70
71188;DHT22;58893;53.130;8.158;2022-12-13T10:24:24;1.00;69.70
71188;DHT22;58893;53.130;8.158;2022-12-13T10:26:52;1.00;69.70
71188;DHT22;58893;53.130;8.158;2022-12-13T10:29:19;1.00;69.80
71188;DHT22;58893;53.130;8.158;2022-12-13T10:31:50;1.00;69.80
71188;DHT22;58893;53.130;8.158;2022-12-13T10:34:33;1.00;69.90
71188;DHT22;58893;53.130;8.158;2022-12-13T10:37:27;1.00;69.90
71188;DHT22;58893;53.130;8.158;2022-12-13T10:39:53;1.00;69.90
71188;DHT22;58893;53.130;8.158;2022-12-13T10:42:20;1.00;69.80
71188;DHT22;58893;53.130;8.158;2022-12-13T10:44:47;1.00;71.20
71188;DHT22;58893;53.130;8.158;2022-12-13T10:47:19;1.00;71.20
71188;DHT22;58893;53.130;8.158;2022-12-13T10:49:52;1.00;70.80
71188;DHT22;58893;53.130;8.158;2022-12-13T10:52:34;1.00;71.00
71188;DHT22;58893;53.130;8.158;2022-12-13T10:55:26;1.10;71.10
71188;DHT22;58893;53.130;8.158;2022-12-13T10:57:52;1.10;71.10
71188;DHT22;58893;53.130;8.158;2022-12-13T11:00:32;1.10;71.00
71188;DHT22;58893;53.130;8.158;2022-12-13T11:02:58;1.10;71.10
71188;DHT22;58893;53.130;8.158;2022-12-13T11:05:29;1.10;71.50
71188;DHT22;58893;53.130;8.158;2022-12-13T11:08:17;1.10;71.60
71188;DHT22;58893;53.130;8.158;2022-12-13T11:10:45;1.20;72.50
71188;DHT22;58893;53.130;8.158;2022-12-13T11:13:22;1.20;73.80
71188;DHT22;58893;53.130;8.158;2022-12-13T11:15:53;1.20;70.40
71188;DHT22;58893;53.130;8.158;2022-12-13T11:18:21;1.20;70.30
71188;DHT22;58893;53.130;8.158;2022-12-13T11:20:58;1.20;70.30
71188;DHT22;58893;53.130;8.158;2022-12-13T11:23:36;1.20;70.30
71188;DHT22;58893;53.130;8.158;2022-12-13T11:26:16;1.20;70.40
71188;DHT22;58893;53.130;8.158;2022-12-13T11:28:59;1.20;70.40
71188;DHT22;58893;53.130;8.158;2022-12-13T11:34:42;1.30;70.80
71188;DHT22;58893;53.130;8.158;2022-12-13T11:37:27;1.30;70.90
71188;DHT22;58893;53.130;8.158;2022-12-13T11:40:05;1.30;71.00
71188;DHT22;58893;53.130;8.158;2022-12-13T11:42:42;1.30;71.10
71188;DHT22;58893;53.130;8.158;2022-12-13T11:47:52;1.30;70.80
71188;DHT22;58893;53.130;8.158;2022-12-13T11:50:25;1.40;71.00
71188;DHT22;58893;53.130;8.158;2022-12-13T11:52:56;1.40;71.00
71188;DHT22;58893;53.130;8.158;2022-12-13T11:55:35;1.40;71.00
71188;DHT22;58893;53.130;8.158;2022-12-13T11:58:10;1.40;71.00
71188;DHT22;58893;53.130;8.158;2022-12-13T12:00:47;1.40;71.00
71188;DHT22;58893;53.130;8.158;2022-12-13T12:03:20;1.40;71.00
71188;DHT22;58893;53.130;8.158;2022-12-13T12:05:59;1.40;71.10
71188;DHT22;58893;53.130;8.158;2022-12-13T12:08:39;1.40;71.10
71188;DHT22;58893;53.130;8.158;2022-12-13T12:16:48;1.50;71.50
71188;DHT22;58893;53.130;8.158;2022-12-13T12:19:21;1.50;71.60
71188;DHT22;58893;53.130;8.158;2022-12-13T12:24:40;1.50;71.60
71188;DHT22;58893;53.130;8.158;2022-12-13T12:27:30;1.50;71.60
71188;DHT22;58893;53.130;8.158;2022-12-13T12:30:18;1.50;71.60
71188;DHT22;58893;53.130;8.158;2022-12-13T12:38:42;1.60;71.60
71188;DHT22;58893;53.130;8.158;2022-12-13T12:43:40;1.60;71.60
71188;DHT22;58893;53.130;8.158;2022-12-13T12:51:48;1.60;71.80
71188;DHT22;58893;53.130;8.158;2022-12-13T12:57:42;1.60;71.80
71188;DHT22;58893;53.130;8.158;2022-12-13T13:00:15;1.60;71.70
71188;DHT22;58893;53.130;8.158;2022-12-13T13:02:58;1.60;71.80
71188;DHT22;58893;53.130;8.158;2022-12-13T13:05:41;1.60;71.90
71188;DHT22;58893;53.130;8.158;2022-12-13T13:08:26;1.60;71.90
71188;DHT22;58893;53.130;8.158;2022-12-13T13:10:54;1.60;72.00
71188;DHT22;58893;53.130;8.158;2022-12-13T13:13:34;1.60;72.00
71188;DHT22;58893;53.130;8.158;2022-12-13T13:16:01;1.60;73.10
71188;DHT22;58893;53.130;8.158;2022-12-13T13:18:51;1.60;73.50
71188;DHT22;58893;53.130;8.158;2022-12-13T13:34:39;1.60;74.20
71188;DHT22;58893;53.130;8.158;2022-12-13T13:42:30;1.70;72.40
71188;DHT22;58893;53.130;8.158;2022-12-13T13:47:52;1.70;72.40
71188;DHT22;58893;53.130;8.158;2022-12-13T14:18:27;1.60;72.80
71188;DHT22;58893;53.130;8.158;2022-12-13T14:21:34;1.60;73.20
71188;DHT22;58893;53.130;8.158;2022-12-13T14:29:13;1.60;72.30
71188;DHT22;58893;53.130;8.158;2022-12-13T14:31:45;1.60;72.50
71188;DHT22;58893;53.130;8.158;2022-12-13T14:34:30;1.60;74.50
71188;DHT22;58893;53.130;8.158;2022-12-13T14:37:00;1.60;72.50
71188;DHT22;58893;53.130;8.158;2022-12-13T14:39:27;1.60;72.50
71188;DHT22;58893;53.130;8.158;2022-12-13T14:41:58;1.60;72.40
71188;DHT22;58893;53.130;8.158;2022-12-13T14:44:29;1.60;72.50
71188;DHT22;58893;53.130;8.158;2022-12-13T14:47:00;1.60;72.50
71188;DHT22;58893;53.130;8.158;2022-12-13T14:49:28;1.60;72.50
71188;DHT22;58893;53.130;8.158;2022-12-13T14:52:04;1.60;72.40
71188;DHT22;58893;53.130;8.158;2022-12-13T14:57:16;1.60;72.30
71188;DHT22;58893;53.130;8.158;2022-12-13T14:59:47;1.50;75.10
71188;DHT22;58893;53.130;8.158;2022-12-13T15:02:16;1.50;75.20
71188;DHT22;58893;53.130;8.158;2022-12-13T15:04:42;1.50;75.20
71188;DHT22;58893;53.130;8.158;2022-12-13T15:07:17;1.60;75.60
71188;DHT22;58893;53.130;8.158;2022-12-13T15:09:46;1.50;74.20
71188;DHT22;58893;53.130;8.158;2022-12-13T15:12:17;1.60;72.50
71188;DHT22;58893;53.130;8.158;2022-12-13T15:14:46;1.60;72.50
71188;DHT22;58893;53.130;8.158;2022-12-13T15:19:56;1.60;72.50
71188;DHT22;58893;53.130;8.158;2022-12-13T15:22:23;1.50;72.40
71188;DHT22;58893;53.130;8.158;2022-12-13T15:24:49;1.60;72.50
71188;DHT22;58893;53.130;8.158;2022-12-13T15:27:19;1.50;72.40
71188;DHT22;58893;53.130;8.158;2022-12-13T15:29:47;1.50;72.40
71188;DHT22;58893;53.130;8.158;2022-12-13T15:32:18;1.50;72.40
71188;DHT22;58893;53.130;8.158;2022-12-13T15:34:47;1.50;72.30
71188;DHT22;58893;53.130;8.158;2022-12-13T15:39:41;1.50;72.40
71188;DHT22;58893;53.130;8.158;2022-12-13T15:42:36;1.50;72.30
71188;DHT22;58893;53.130;8.158;2022-12-13T15:45:18;1.50;72.30
71188;DHT22;58893;53.130;8.158;2022-12-13T15:47:46;1.50;72.30
71188;DHT22;58893;53.130;8.158;2022-12-13T15:50:35;1.50;72.10
71188;DHT22;58893;53.130;8.158;2022-12-13T15:53:04;1.50;72.10
71188;DHT22;58893;53.130;8.158;2022-12-13T15:55:33;1.50;72.00
71188;DHT22;58893;53.130;8.158;2022-12-13T15:57:59;1.40;71.70
71188;DHT22;58893;53.130;8.158;2022-12-13T16:00:31;1.40;71.60
71188;DHT22;58893;53.130;8.158;2022-12-13T16:03:12;1.40;71.50
71188;DHT22;58893;53.130;8.158;2022-12-13T16:05:50;1.40;71.30
71188;DHT22;58893;53.130;8.158;2022-12-13T16:08:31;1.40;71.10
71188;DHT22;58893;53.130;8.158;2022-12-13T16:10:58;1.30;70.90
71188;DHT22;58893;53.130;8.158;2022-12-13T16:13:25;1.30;70.80
71188;DHT22;58893;53.130;8.158;2022-12-13T16:15:54;1.30;70.80
71188;DHT22;58893;53.130;8.158;2022-12-13T16:18:23;1.30;70.70
71188;DHT22;58893;53.130;8.158;2022-12-13T16:20:50;1.30;70.60
71188;DHT22;58893;53.130;8.158;2022-12-13T16:23:16;1.20;70.50
71188;DHT22;58893;53.130;8.158;2022-12-13T16:25:42;1.20;70.20
71188;DHT22;58893;53.130;8.158;2022-12-13T16:28:15;1.20;69.90
71188;DHT22;58893;53.130;8.158;2022-12-13T16:33:20;1.20;69.60
71188;DHT22;58893;53.130;8.158;2022-12-13T16:35:45;1.10;69.30
71188;DHT22;58893;53.130;8.158;2022-12-13T16:38:12;1.10;68.90
71188;DHT22;58893;53.130;8.158;2022-12-13T16:40:38;1.10;69.20
71188;DHT22;58893;53.130;8.158;2022-12-13T16:43:06;1.10;68.30
71188;DHT22;58893;53.130;8.158;2022-12-13T16:45:40;1.00;68.00
71188;DHT22;58893;53.130;8.158;2022-12-13T16:48:08;1.00;68.00
71188;DHT22;58893;53.130;8.158;2022-12-13T16:50:35;0.90;67.90
71188;DHT22;58893;53.130;8.158;2022-12-13T16:53:02;0.90;68.00
71188;DHT22;58893;53.130;8.158;2022-12-13T16:55:27;0.90;68.20
71188;DHT22;58893;53.130;8.158;2022-12-13T16:57:57;0.90;68.30
71188;DHT22;58893;53.130;8.158;2022-12-13T17:00:24;0.90;68.30
71188;DHT22;58893;53.130;8.158;2022-12-13T17:02:49;0.80;68.30
71188;DHT22;58893;53.130;8.158;2022-12-13T17:05:15;0.80;68.40
71188;DHT22;58893;53.130;8.158;2022-12-13T17:07:41;0.80;68.40
71188;DHT22;58893;53.130;8.158;2022-12-13T17:10:08;0.80;68.30
71188;DHT22;58893;53.130;8.158;2022-12-13T17:12:34;0.80;68.10
71188;DHT22;58893;53.130;8.158;2022-12-13T17:15:00;0.80;67.90
71188;DHT22;58893;53.130;8.158;2022-12-13T17:17:26;0.80;67.90
71188;DHT22;58893;53.130;8.158;2022-12-13T17:19:51;0.80;67.80
71188;DHT22;58893;53.130;8.158;2022-12-13T17:22:17;0.80;67.60
71188;DHT22;58893;53.130;8.158;2022-12-13T17:24:43;0.70;67.30
71188;DHT22;58893;53.130;8.158;2022-12-13T17:27:09;0.70;67.20
71188;DHT22;58893;53.130;8.158;2022-12-13T17:29:34;0.70;67.10
71188;DHT22;58893;53.130;8.158;2022-12-13T17:32:00;0.70;67.10
71188;DHT22;58893;53.130;8.158;2022-12-13T17:34:26;0.70;67.10
71188;DHT22;58893;53.130;8.158;2022-12-13T17:36:51;0.60;66.80
71188;DHT22;58893;53.130;8.158;2022-12-13T17:39:17;0.60;66.50
71188;DHT22;58893;53.130;8.158;2022-12-13T17:41:43;0.60;66.30
71188;DHT22;58893;53.130;8.158;2022-12-13T17:44:09;0.60;66.10
71188;DHT22;58893;53.130;8.158;2022-12-13T17:46:35;0.60;66.00
71188;DHT22;58893;53.130;8.158;2022-12-13T17:49:01;0.50;65.80
71188;DHT22;58893;53.130;8.158;2022-12-13T17:51:26;0.50;65.70
71188;DHT22;58893;53.130;8.158;2022-12-13T17:53:52;0.50;65.50
71188;DHT22;58893;53.130;8.158;2022-12-13T17:56:18;0.40;65.30
71188;DHT22;58893;53.130;8.158;2022-12-13T17:58:44;0.40;65.30
71188;DHT22;58893;53.130;8.158;2022-12-13T18:01:17;0.40;65.20
71188;DHT22;58893;53.130;8.158;2022-12-13T18:03:43;0.40;65.20